createdAt,value
2023-03-23T16:00:16.557Z,5.82
2023-03-23T16:02:45.442Z,5.05
2023-03-23T16:05:13.650Z,5.18
2023-03-23T16:07:40.813Z,5.45
2023-03-23T16:10:14.883Z,5.13
2023-03-23T16:12:41.867Z,5.07
2023-03-23T16:15:09.447Z,5.60
2023-03-23T16:17:36.485Z,5.00
2023-03-23T16:20:14.286Z,5.60
2023-03-23T16:22:41.681Z,4.53
2023-03-23T16:25:10.300Z,5.25
2023-03-23T16:27:38.202Z,5.25
2023-03-23T16:30:21.116Z,5.68
2023-03-23T16:32:48.450Z,4.65
2023-03-23T16:35:16.425Z,5.22
2023-03-23T16:38:08.557Z,5.10
2023-03-23T16:40:40.025Z,4.60
2023-03-23T16:43:08.969Z,5.20
2023-03-23T16:45:43.973Z,4.47
2023-03-23T16:48:13.013Z,5.25
2023-03-23T16:50:40.820Z,5.20
2023-03-23T16:53:09.327Z,5.78
2023-03-23T16:55:37.656Z,5.47
2023-03-23T16:58:16.366Z,4.50
2023-03-23T17:00:47.845Z,5.82
2023-03-23T17:03:16.498Z,6.03
2023-03-23T17:05:45.254Z,5.30
2023-03-23T17:08:12.718Z,5.18
2023-03-23T17:10:41.324Z,5.03
2023-03-23T17:13:09.200Z,5.18
2023-03-23T17:15:38.071Z,4.90
2023-03-23T17:18:06.544Z,5.60
2023-03-23T17:20:35.305Z,5.13
2023-03-23T17:23:02.862Z,5.05
2023-03-23T17:25:33.467Z,5.45
2023-03-23T17:28:05.788Z,5.78
2023-03-23T17:30:34.863Z,5.60
2023-03-23T17:33:01.977Z,5.85
2023-03-23T17:35:29.038Z,6.88
2023-03-23T17:37:56.034Z,6.22
2023-03-23T17:40:23.029Z,5.90
2023-03-23T17:42:50.247Z,6.63
2023-03-23T17:45:17.258Z,6.00
2023-03-23T17:47:44.282Z,5.78
2023-03-23T17:50:12.680Z,5.68
2023-03-23T17:52:41.796Z,5.22
2023-03-23T17:55:09.420Z,5.60
2023-03-23T17:57:36.479Z,5.50
2023-03-23T18:00:07.474Z,6.47
2023-03-23T18:02:36.112Z,5.88
2023-03-23T18:05:03.489Z,6.35
2023-03-23T18:07:31.569Z,6.03
2023-03-23T18:10:01.725Z,6.55
2023-03-23T18:12:30.210Z,6.07
2023-03-23T18:14:58.573Z,6.00
2023-03-23T18:17:26.523Z,6.05
2023-03-23T18:19:54.153Z,6.88
2023-03-23T18:22:21.345Z,7.47
2023-03-23T18:24:48.402Z,7.85
2023-03-23T18:27:15.988Z,7.05
2023-03-23T18:29:43.498Z,7.07
2023-03-23T18:32:10.540Z,7.82
2023-03-23T18:34:41.795Z,7.28
2023-03-23T18:37:09.337Z,6.68
2023-03-23T18:39:37.111Z,7.53
2023-03-23T18:42:05.662Z,7.22
2023-03-23T18:44:32.842Z,7.18
2023-03-23T18:46:59.858Z,6.63
2023-03-23T18:49:28.574Z,6.78
2023-03-23T18:51:55.591Z,6.75
2023-03-23T18:54:22.592Z,6.88
2023-03-23T18:56:49.567Z,7.35
2023-03-23T18:59:16.604Z,6.60
2023-03-23T19:01:43.645Z,6.90
2023-03-23T19:04:13.643Z,7.38
2023-03-23T19:06:41.513Z,6.47
2023-03-23T19:09:08.553Z,6.18
2023-03-23T19:11:35.806Z,7.10
2023-03-23T19:14:03.551Z,7.38
2023-03-23T19:16:34.151Z,6.32
2023-03-23T19:19:03.101Z,6.10
2023-03-23T19:21:31.906Z,6.38
2023-03-23T19:24:00.222Z,6.72
2023-03-23T19:26:36.676Z,7.45
2023-03-23T19:29:24.340Z,6.93
2023-03-23T19:31:53.472Z,6.53
2023-03-23T19:34:22.216Z,6.80
2023-03-23T19:36:55.078Z,7.47
2023-03-23T19:39:26.755Z,6.85
2023-03-23T19:41:53.974Z,6.30
2023-03-23T19:44:21.165Z,6.28
2023-03-23T19:46:48.408Z,6.50
2023-03-23T19:49:15.868Z,5.85
2023-03-23T19:51:42.913Z,6.82
2023-03-23T19:54:10.076Z,7.00
2023-03-23T19:56:37.287Z,6.53
2023-03-23T19:59:05.112Z,6.18
2023-03-23T20:01:32.353Z,6.75
2023-03-23T20:04:00.321Z,6.82
2023-03-23T20:06:29.293Z,6.32
2023-03-23T20:09:00.215Z,6.80
2023-03-23T20:11:28.384Z,6.50
2023-03-23T20:13:56.348Z,6.28
2023-03-23T20:16:24.189Z,6.53
2023-03-23T20:18:52.919Z,5.85
2023-03-23T20:21:23.049Z,6.10
2023-03-23T20:23:52.302Z,6.30
2023-03-23T20:26:33.551Z,6.18
2023-03-23T20:29:00.761Z,6.07
2023-03-23T20:31:36.450Z,6.53
2023-03-23T20:34:13.097Z,6.40
2023-03-23T20:36:42.663Z,5.88
2023-03-23T20:39:13.500Z,5.65
2023-03-23T20:41:41.213Z,6.90
2023-03-23T20:44:14.235Z,6.07
2023-03-23T20:46:46.406Z,5.70
2023-03-23T20:49:14.824Z,5.80
2023-03-23T20:51:41.979Z,5.97
2023-03-23T20:54:10.240Z,6.28
2023-03-23T20:56:39.962Z,5.97
2023-03-23T20:59:06.945Z,6.85
2023-03-23T21:01:34.468Z,6.72
2023-03-23T21:04:03.310Z,6.93
2023-03-23T21:06:31.575Z,6.95
2023-03-23T21:08:59.266Z,7.00
2023-03-23T21:11:28.149Z,6.47
2023-03-23T21:13:56.788Z,6.90
2023-03-23T21:16:25.098Z,5.97
2023-03-23T21:18:52.550Z,7.57
2023-03-23T21:21:19.986Z,7.35
2023-03-23T21:23:52.756Z,7.40
2023-03-23T21:26:23.429Z,7.38
2023-03-23T21:28:54.128Z,7.28
2023-03-23T21:31:26.877Z,7.07
2023-03-23T21:33:53.913Z,7.40
2023-03-23T21:36:21.148Z,6.97
2023-03-23T21:38:50.168Z,6.88
2023-03-23T21:41:17.290Z,6.68
2023-03-23T21:43:45.971Z,7.72
2023-03-23T21:46:18.113Z,6.80
2023-03-23T21:48:53.027Z,6.93
2023-03-23T21:51:23.446Z,6.88
2023-03-23T21:53:54.401Z,7.32
2023-03-23T21:56:25.356Z,7.28
2023-03-23T21:58:52.723Z,7.82
2023-03-23T22:01:19.896Z,7.53
2023-03-23T22:03:47.423Z,8.30
2023-03-23T22:06:21.048Z,8.18
2023-03-23T22:08:48.185Z,8.02
2023-03-23T22:11:21.848Z,8.65
2023-03-23T22:13:52.053Z,8.32
2023-03-23T22:16:20.995Z,7.70
2023-03-23T22:18:50.233Z,8.50
2023-03-23T22:21:18.240Z,8.48
2023-03-23T22:23:46.278Z,8.52
2023-03-23T22:26:14.521Z,8.25
2023-03-23T22:28:43.033Z,9.50
2023-03-23T22:31:18.662Z,8.55
2023-03-23T22:33:47.512Z,9.07
2023-03-23T22:36:16.205Z,10.82
2023-03-23T22:38:45.860Z,9.52
2023-03-23T22:41:18.916Z,10.32
2023-03-23T22:43:47.142Z,9.07
2023-03-23T22:46:15.587Z,9.70
2023-03-23T22:48:42.796Z,9.27
2023-03-23T22:51:11.926Z,9.18
2023-03-23T22:53:39.366Z,9.65
2023-03-23T22:56:07.373Z,9.82
2023-03-23T22:58:35.005Z,10.50
2023-03-23T23:01:05.579Z,10.65
2023-03-23T23:03:34.039Z,9.57
2023-03-23T23:06:01.493Z,9.90
2023-03-23T23:08:30.350Z,9.93
2023-03-23T23:10:59.528Z,10.07
2023-03-23T23:13:27.395Z,10.90
2023-03-23T23:15:57.066Z,11.40
2023-03-23T23:18:26.126Z,11.38
2023-03-23T23:20:55.675Z,11.48
2023-03-23T23:23:24.684Z,9.48
2023-03-23T23:25:52.409Z,11.80
2023-03-23T23:28:20.466Z,11.95
2023-03-23T23:30:48.283Z,11.05
2023-03-23T23:33:16.108Z,11.73
2023-03-23T23:35:43.200Z,11.90
2023-03-23T23:38:12.689Z,11.52
2023-03-23T23:40:43.013Z,11.25
2023-03-23T23:43:15.437Z,11.15
2023-03-23T23:45:42.804Z,11.20
2023-03-23T23:48:10.093Z,10.25
2023-03-23T23:50:37.171Z,11.80
2023-03-23T23:53:05.071Z,11.60
2023-03-23T23:55:32.352Z,11.05
2023-03-23T23:57:59.437Z,10.85
